sensor_id;sensor_type;location;lat;lon;timestamp;temperature;humidity
22984;DHT22;11658;48.908;9.140;2022-07-06T03:16:22;15.40;99.90
22984;DHT22;11658;48.908;9.140;2022-07-06T03:18:48;15.30;99.90
22984;DHT22;11658;48.908;9.140;2022-07-06T03:21:13;15.30;99.90
22984;DHT22;11658;48.908;9.140;2022-07-06T03:23:39;15.30;99.90
22984;DHT22;11658;48.908;9.140;2022-07-06T03:26:05;15.30;99.90
22984;DHT22;11658;48.908;9.140;2022-07-06T03:28:30;15.30;99.90
22984;DHT22;11658;48.908;9.140;2022-07-06T03:30:56;15.20;99.90
22984;DHT22;11658;48.908;9.140;2022-07-06T03:33:21;15.20;99.90
22984;DHT22;11658;48.908;9.140;2022-07-06T03:35:47;15.20;99.90
22984;DHT22;11658;48.908;9.140;2022-07-06T03:38:12;15.20;99.90
22984;DHT22;11658;48.908;9.140;2022-07-06T03:40:38;15.20;99.90
22984;DHT22;11658;48.908;9.140;2022-07-06T03:43:03;15.30;99.90
22984;DHT22;11658;48.908;9.140;2022-07-06T03:45:29;15.30;99.90
22984;DHT22;11658;48.908;9.140;2022-07-06T03:47:56;15.30;99.90
22984;DHT22;11658;48.908;9.140;2022-07-06T03:50:21;15.30;99.90
22984;DHT22;11658;48.908;9.140;2022-07-06T03:52:47;15.30;99.90
22984;DHT22;11658;48.908;9.140;2022-07-06T03:55:12;15.30;99.90
22984;DHT22;11658;48.908;9.140;2022-07-06T03:57:38;15.40;99.90
22984;DHT22;11658;48.908;9.140;2022-07-06T04:00:06;15.30;99.90
22984;DHT22;11658;48.908;9.140;2022-07-06T04:02:32;15.30;99.90
22984;DHT22;11658;48.908;9.140;2022-07-06T04:04:58;15.30;99.90
22984;DHT22;11658;48.908;9.140;2022-07-06T04:07:24;15.20;99.90
22984;DHT22;11658;48.908;9.140;2022-07-06T04:09:50;15.30;99.90
22984;DHT22;11658;48.908;9.140;2022-07-06T04:12:16;15.30;99.90
22984;DHT22;11658;48.908;9.140;2022-07-06T04:14:42;15.40;99.90
22984;DHT22;11658;48.908;9.140;2022-07-06T04:17:08;15.50;99.90
22984;DHT22;11658;48.908;9.140;2022-07-06T04:19:52;15.50;99.90
22984;DHT22;11658;48.908;9.140;2022-07-06T04:22:18;15.50;99.90
22984;DHT22;11658;48.908;9.140;2022-07-06T04:24:44;15.50;99.90
22984;DHT22;11658;48.908;9.140;2022-07-06T04:27:09;15.40;99.90
22984;DHT22;11658;48.908;9.140;2022-07-06T04:29:35;15.40;99.90
22984;DHT22;11658;48.908;9.140;2022-07-06T04:32:01;15.40;99.90
22984;DHT22;11658;48.908;9.140;2022-07-06T04:34:26;15.90;99.90
22984;DHT22;11658;48.908;9.140;2022-07-06T04:36:52;17.10;99.90
22984;DHT22;11658;48.908;9.140;2022-07-06T04:39:18;18.30;99.90
22984;DHT22;11658;48.908;9.140;2022-07-06T04:41:43;19.40;99.90
22984;DHT22;11658;48.908;9.140;2022-07-06T04:44:09;20.40;99.90
22984;DHT22;11658;48.908;9.140;2022-07-06T04:46:34;20.80;99.90
22984;DHT22;11658;48.908;9.140;2022-07-06T04:49:00;21.20;99.90
22984;DHT22;11658;48.908;9.140;2022-07-06T04:51:26;22.10;99.90
22984;DHT22;11658;48.908;9.140;2022-07-06T04:53:51;22.60;99.90
22984;DHT22;11658;48.908;9.140;2022-07-06T04:56:17;23.30;99.90
22984;DHT22;11658;48.908;9.140;2022-07-06T04:58:42;24.10;99.90
22984;DHT22;11658;48.908;9.140;2022-07-06T05:01:08;23.60;99.90
22984;DHT22;11658;48.908;9.140;2022-07-06T05:03:34;23.60;99.90
22984;DHT22;11658;48.908;9.140;2022-07-06T05:06:05;24.00;99.90
22984;DHT22;11658;48.908;9.140;2022-07-06T05:08:30;24.80;99.90
22984;DHT22;11658;48.908;9.140;2022-07-06T05:10:56;25.50;99.90
22984;DHT22;11658;48.908;9.140;2022-07-06T05:13:22;26.50;99.90
22984;DHT22;11658;48.908;9.140;2022-07-06T05:15:47;26.70;99.90
22984;DHT22;11658;48.908;9.140;2022-07-06T05:18:13;25.50;99.90
22984;DHT22;11658;48.908;9.140;2022-07-06T05:20:39;25.20;99.90
22984;DHT22;11658;48.908;9.140;2022-07-06T05:23:04;25.10;99.90
22984;DHT22;11658;48.908;9.140;2022-07-06T05:25:30;26.20;99.90
22984;DHT22;11658;48.908;9.140;2022-07-06T05:27:57;26.70;99.90
22984;DHT22;11658;48.908;9.140;2022-07-06T05:30:22;27.10;99.90
22984;DHT22;11658;48.908;9.140;2022-07-06T05:32:48;27.90;99.90
22984;DHT22;11658;48.908;9.140;2022-07-06T05:35:13;27.80;99.90
22984;DHT22;11658;48.908;9.140;2022-07-06T05:37:39;27.50;99.90
22984;DHT22;11658;48.908;9.140;2022-07-06T05:40:05;26.40;99.90
22984;DHT22;11658;48.908;9.140;2022-07-06T05:42:30;25.20;99.90
22984;DHT22;11658;48.908;9.140;2022-07-06T05:44:56;24.40;99.90
22984;DHT22;11658;48.908;9.140;2022-07-06T05:47:22;25.50;99.90
22984;DHT22;11658;48.908;9.140;2022-07-06T05:50:07;26.60;99.90
22984;DHT22;11658;48.908;9.140;2022-07-06T05:52:40;26.50;99.90
22984;DHT22;11658;48.908;9.140;2022-07-06T05:55:06;27.20;99.90
22984;DHT22;11658;48.908;9.140;2022-07-06T05:57:32;26.70;99.90
22984;DHT22;11658;48.908;9.140;2022-07-06T05:59:57;25.40;99.90
22984;DHT22;11658;48.908;9.140;2022-07-06T06:02:23;24.10;99.90
22984;DHT22;11658;48.908;9.140;2022-07-06T06:04:48;23.60;99.90
22984;DHT22;11658;48.908;9.140;2022-07-06T06:07:14;22.40;99.90
22984;DHT22;11658;48.908;9.140;2022-07-06T06:09:39;22.00;99.90
22984;DHT22;11658;48.908;9.140;2022-07-06T06:12:05;22.10;99.90
22984;DHT22;11658;48.908;9.140;2022-07-06T06:14:31;22.10;99.90
22984;DHT22;11658;48.908;9.140;2022-07-06T06:16:57;23.20;99.90
22984;DHT22;11658;48.908;9.140;2022-07-06T06:19:23;24.70;99.90
22984;DHT22;11658;48.908;9.140;2022-07-06T06:21:49;25.70;99.90
22984;DHT22;11658;48.908;9.140;2022-07-06T06:24:14;25.40;99.90
22984;DHT22;11658;48.908;9.140;2022-07-06T06:26:40;25.50;99.90
22984;DHT22;11658;48.908;9.140;2022-07-06T06:29:05;26.20;99.90
22984;DHT22;11658;48.908;9.140;2022-07-06T06:31:31;26.90;99.90
22984;DHT22;11658;48.908;9.140;2022-07-06T06:33:57;27.70;99.90
22984;DHT22;11658;48.908;9.140;2022-07-06T06:36:22;26.30;99.90
22984;DHT22;11658;48.908;9.140;2022-07-06T06:38:48;27.40;99.90
22984;DHT22;11658;48.908;9.140;2022-07-06T06:41:13;28.70;99.90
22984;DHT22;11658;48.908;9.140;2022-07-06T06:43:39;28.30;99.90
22984;DHT22;11658;48.908;9.140;2022-07-06T06:46:05;27.10;99.90
22984;DHT22;11658;48.908;9.140;2022-07-06T06:48:31;25.50;99.90
22984;DHT22;11658;48.908;9.140;2022-07-06T06:50:57;23.70;99.90
22984;DHT22;11658;48.908;9.140;2022-07-06T06:53:22;23.20;99.90
22984;DHT22;11658;48.908;9.140;2022-07-06T06:55:48;22.10;99.90
22984;DHT22;11658;48.908;9.140;2022-07-06T06:58:14;21.70;99.90
22984;DHT22;11658;48.908;9.140;2022-07-06T07:00:40;21.50;99.90
22984;DHT22;11658;48.908;9.140;2022-07-06T07:03:06;21.00;99.90
22984;DHT22;11658;48.908;9.140;2022-07-06T07:05:31;20.30;99.90
22984;DHT22;11658;48.908;9.140;2022-07-06T07:07:57;20.20;99.90
22984;DHT22;11658;48.908;9.140;2022-07-06T07:10:25;20.20;99.90
22984;DHT22;11658;48.908;9.140;2022-07-06T07:12:51;20.30;99.90
22984;DHT22;11658;48.908;9.140;2022-07-06T07:15:17;20.20;99.90
22984;DHT22;11658;48.908;9.140;2022-07-06T07:17:43;20.20;99.90
22984;DHT22;11658;48.908;9.140;2022-07-06T07:20:09;19.90;99.90
22984;DHT22;11658;48.908;9.140;2022-07-06T07:22:35;19.70;99.90
22984;DHT22;11658;48.908;9.140;2022-07-06T07:25:01;19.50;99.90
22984;DHT22;11658;48.908;9.140;2022-07-06T07:27:26;19.40;99.90
22984;DHT22;11658;48.908;9.140;2022-07-06T07:29:52;19.30;99.90
22984;DHT22;11658;48.908;9.140;2022-07-06T07:32:19;19.30;99.90
22984;DHT22;11658;48.908;9.140;2022-07-06T07:34:45;19.40;99.90
22984;DHT22;11658;48.908;9.140;2022-07-06T07:37:11;19.60;99.90
22984;DHT22;11658;48.908;9.140;2022-07-06T07:39:36;19.40;99.90
22984;DHT22;11658;48.908;9.140;2022-07-06T07:42:02;19.50;99.90
22984;DHT22;11658;48.908;9.140;2022-07-06T07:44:28;19.20;99.90
22984;DHT22;11658;48.908;9.140;2022-07-06T07:46:54;19.10;99.90
22984;DHT22;11658;48.908;9.140;2022-07-06T07:49:19;19.30;99.90
22984;DHT22;11658;48.908;9.140;2022-07-06T07:51:47;19.70;99.90
22984;DHT22;11658;48.908;9.140;2022-07-06T07:54:13;19.80;99.90
22984;DHT22;11658;48.908;9.140;2022-07-06T07:56:38;19.80;99.90
22984;DHT22;11658;48.908;9.140;2022-07-06T07:59:08;19.90;99.90
22984;DHT22;11658;48.908;9.140;2022-07-06T08:01:34;19.90;99.90
22984;DHT22;11658;48.908;9.140;2022-07-06T08:04:00;20.10;99.90
22984;DHT22;11658;48.908;9.140;2022-07-06T08:06:26;19.80;99.90
22984;DHT22;11658;48.908;9.140;2022-07-06T08:08:51;19.60;99.90
22984;DHT22;11658;48.908;9.140;2022-07-06T08:11:17;19.70;99.90
22984;DHT22;11658;48.908;9.140;2022-07-06T08:13:43;19.90;99.90
22984;DHT22;11658;48.908;9.140;2022-07-06T08:16:09;19.90;99.90
22984;DHT22;11658;48.908;9.140;2022-07-06T08:18:35;19.70;99.90
22984;DHT22;11658;48.908;9.140;2022-07-06T08:21:01;19.80;99.90
22984;DHT22;11658;48.908;9.140;2022-07-06T08:23:27;19.80;99.90
22984;DHT22;11658;48.908;9.140;2022-07-06T08:25:52;19.80;99.90
22984;DHT22;11658;48.908;9.140;2022-07-06T08:28:18;20.20;99.90
22984;DHT22;11658;48.908;9.140;2022-07-06T08:30:44;20.40;99.90
22984;DHT22;11658;48.908;9.140;2022-07-06T08:33:10;20.50;99.90
22984;DHT22;11658;48.908;9.140;2022-07-06T08:35:35;20.50;99.90
22984;DHT22;11658;48.908;9.140;2022-07-06T08:38:01;20.60;99.90
22984;DHT22;11658;48.908;9.140;2022-07-06T08:40:32;20.80;99.90
22984;DHT22;11658;48.908;9.140;2022-07-06T08:42:59;21.00;99.90
22984;DHT22;11658;48.908;9.140;2022-07-06T08:45:26;20.80;99.90
22984;DHT22;11658;48.908;9.140;2022-07-06T08:47:54;20.60;99.90
22984;DHT22;11658;48.908;9.140;2022-07-06T08:50:20;20.40;99.90
22984;DHT22;11658;48.908;9.140;2022-07-06T08:52:47;20.20;99.90
22984;DHT22;11658;48.908;9.140;2022-07-06T08:55:13;20.30;99.90
22984;DHT22;11658;48.908;9.140;2022-07-06T08:57:39;20.50;99.90
22984;DHT22;11658;48.908;9.140;2022-07-06T09:00:07;20.70;99.90
22984;DHT22;11658;48.908;9.140;2022-07-06T09:02:35;20.80;99.90
22984;DHT22;11658;48.908;9.140;2022-07-06T09:05:02;20.80;99.90
22984;DHT22;11658;48.908;9.140;2022-07-06T09:07:29;20.90;99.90
22984;DHT22;11658;48.908;9.140;2022-07-06T09:09:56;20.80;99.90
22984;DHT22;11658;48.908;9.140;2022-07-06T09:12:26;20.80;99.90
22984;DHT22;11658;48.908;9.140;2022-07-06T09:14:57;21.20;99.90
22984;DHT22;11658;48.908;9.140;2022-07-06T09:17:27;21.20;99.90
22984;DHT22;11658;48.908;9.140;2022-07-06T09:19:54;21.20;99.90
22984;DHT22;11658;48.908;9.140;2022-07-06T09:22:31;21.20;99.90
22984;DHT22;11658;48.908;9.140;2022-07-06T09:25:07;21.30;99.90
22984;DHT22;11658;48.908;9.140;2022-07-06T09:27:44;21.00;99.90
22984;DHT22;11658;48.908;9.140;2022-07-06T09:30:13;21.10;99.90
22984;DHT22;11658;48.908;9.140;2022-07-06T09:32:41;21.20;99.90
22984;DHT22;11658;48.908;9.140;2022-07-06T09:35:08;21.70;99.90
22984;DHT22;11658;48.908;9.140;2022-07-06T09:37:33;22.00;99.90
22984;DHT22;11658;48.908;9.140;2022-07-06T09:39:59;21.80;99.90
22984;DHT22;11658;48.908;9.140;2022-07-06T09:42:26;21.40;99.90
22984;DHT22;11658;48.908;9.140;2022-07-06T09:44:52;21.50;99.90
22984;DHT22;11658;48.908;9.140;2022-07-06T09:47:18;21.50;99.90
22984;DHT22;11658;48.908;9.140;2022-07-06T09:49:45;21.20;99.90
22984;DHT22;11658;48.908;9.140;2022-07-06T09:52:11;21.10;99.90
22984;DHT22;11658;48.908;9.140;2022-07-06T09:54:38;21.30;99.90
22984;DHT22;11658;48.908;9.140;2022-07-06T09:57:05;21.00;99.90
22984;DHT22;11658;48.908;9.140;2022-07-06T09:59:33;21.10;99.90
22984;DHT22;11658;48.908;9.140;2022-07-06T10:02:01;21.50;99.90
22984;DHT22;11658;48.908;9.140;2022-07-06T10:04:27;21.60;99.90
22984;DHT22;11658;48.908;9.140;2022-07-06T10:06:54;21.60;99.90
22984;DHT22;11658;48.908;9.140;2022-07-06T10:09:21;21.70;99.90
22984;DHT22;11658;48.908;9.140;2022-07-06T10:11:48;21.80;99.90
22984;DHT22;11658;48.908;9.140;2022-07-06T10:14:17;21.60;99.90
22984;DHT22;11658;48.908;9.140;2022-07-06T10:16:46;21.60;99.90
22984;DHT22;11658;48.908;9.140;2022-07-06T10:19:13;21.70;99.90
22984;DHT22;11658;48.908;9.140;2022-07-06T10:21:40;21.60;99.90
22984;DHT22;11658;48.908;9.140;2022-07-06T10:24:07;21.30;99.90
22984;DHT22;11658;48.908;9.140;2022-07-06T10:26:34;21.50;99.90
22984;DHT22;11658;48.908;9.140;2022-07-06T10:29:04;21.80;99.90
22984;DHT22;11658;48.908;9.140;2022-07-06T10:31:31;22.10;99.90
22984;DHT22;11658;48.908;9.140;2022-07-06T10:33:58;22.20;99.90
22984;DHT22;11658;48.908;9.140;2022-07-06T10:36:25;22.30;99.90
22984;DHT22;11658;48.908;9.140;2022-07-06T10:38:53;22.10;99.90
22984;DHT22;11658;48.908;9.140;2022-07-06T10:41:30;22.00;99.90
22984;DHT22;11658;48.908;9.140;2022-07-06T10:43:56;22.00;99.90
22984;DHT22;11658;48.908;9.140;2022-07-06T10:46:23;22.00;99.90
22984;DHT22;11658;48.908;9.140;2022-07-06T10:48:53;22.00;99.90
22984;DHT22;11658;48.908;9.140;2022-07-06T10:51:40;22.30;99.90
22984;DHT22;11658;48.908;9.140;2022-07-06T10:54:06;22.70;99.90
22984;DHT22;11658;48.908;9.140;2022-07-06T10:59:10;22.60;99.90
22984;DHT22;11658;48.908;9.140;2022-07-06T11:01:37;22.30;99.90
22984;DHT22;11658;48.908;9.140;2022-07-06T11:06:32;22.40;99.90
22984;DHT22;11658;48.908;9.140;2022-07-06T11:09:03;22.60;99.90
22984;DHT22;11658;48.908;9.140;2022-07-06T11:14:08;22.90;99.90
22984;DHT22;11658;48.908;9.140;2022-07-06T11:16:37;23.20;99.90
22984;DHT22;11658;48.908;9.140;2022-07-06T11:24:08;22.80;99.90
22984;DHT22;11658;48.908;9.140;2022-07-06T11:26:38;22.60;99.90
22984;DHT22;11658;48.908;9.140;2022-07-06T11:29:08;22.70;99.90
22984;DHT22;11658;48.908;9.140;2022-07-06T11:31:36;22.70;99.90
22984;DHT22;11658;48.908;9.140;2022-07-06T11:34:03;22.70;99.90
22984;DHT22;11658;48.908;9.140;2022-07-06T11:36:30;23.10;99.90
22984;DHT22;11658;48.908;9.140;2022-07-06T11:38:56;23.10;99.90
22984;DHT22;11658;48.908;9.140;2022-07-06T11:41:21;23.10;99.90
22984;DHT22;11658;48.908;9.140;2022-07-06T11:43:47;23.10;99.90
22984;DHT22;11658;48.908;9.140;2022-07-06T11:46:21;22.90;99.90
22984;DHT22;11658;48.908;9.140;2022-07-06T11:48:55;23.00;99.90
22984;DHT22;11658;48.908;9.140;2022-07-06T11:51:21;22.90;99.90
22984;DHT22;11658;48.908;9.140;2022-07-06T11:53:50;23.00;99.90
22984;DHT22;11658;48.908;9.140;2022-07-06T11:56:16;23.30;99.90
22984;DHT22;11658;48.908;9.140;2022-07-06T11:58:45;23.40;99.90
22984;DHT22;11658;48.908;9.140;2022-07-06T12:01:13;23.00;99.90
22984;DHT22;11658;48.908;9.140;2022-07-06T12:03:39;22.80;99.90
22984;DHT22;11658;48.908;9.140;2022-07-06T12:06:10;22.80;99.90
22984;DHT22;11658;48.908;9.140;2022-07-06T12:08:52;22.80;99.90
22984;DHT22;11658;48.908;9.140;2022-07-06T12:11:32;23.30;99.90
22984;DHT22;11658;48.908;9.140;2022-07-06T12:14:18;23.00;99.90
22984;DHT22;11658;48.908;9.140;2022-07-06T12:16:45;23.20;99.90
22984;DHT22;11658;48.908;9.140;2022-07-06T12:19:11;23.40;99.90
22984;DHT22;11658;48.908;9.140;2022-07-06T12:21:43;23.40;99.90
22984;DHT22;11658;48.908;9.140;2022-07-06T12:24:09;23.20;99.90
22984;DHT22;11658;48.908;9.140;2022-07-06T12:26:41;23.00;99.90
22984;DHT22;11658;48.908;9.140;2022-07-06T12:29:08;22.70;99.90
22984;DHT22;11658;48.908;9.140;2022-07-06T12:34:12;22.40;99.90
22984;DHT22;11658;48.908;9.140;2022-07-06T12:39:15;22.30;99.90
22984;DHT22;11658;48.908;9.140;2022-07-06T12:41:55;22.70;99.90
22984;DHT22;11658;48.908;9.140;2022-07-06T12:44:25;23.20;99.90
22984;DHT22;11658;48.908;9.140;2022-07-06T12:47:02;23.70;99.90
22984;DHT22;11658;48.908;9.140;2022-07-06T12:49:28;24.20;99.90
22984;DHT22;11658;48.908;9.140;2022-07-06T12:52:10;24.40;99.90
22984;DHT22;11658;48.908;9.140;2022-07-06T12:54:43;24.40;99.90
22984;DHT22;11658;48.908;9.140;2022-07-06T12:57:16;24.20;99.90
22984;DHT22;11658;48.908;9.140;2022-07-06T13:02:16;23.90;99.90
22984;DHT22;11658;48.908;9.140;2022-07-06T13:04:42;24.10;99.90
22984;DHT22;11658;48.908;9.140;2022-07-06T13:07:17;24.40;99.90
22984;DHT22;11658;48.908;9.140;2022-07-06T13:09:44;24.50;99.90
22984;DHT22;11658;48.908;9.140;2022-07-06T13:12:10;24.50;99.90
22984;DHT22;11658;48.908;9.140;2022-07-06T13:14:36;24.60;99.90
22984;DHT22;11658;48.908;9.140;2022-07-06T13:17:02;24.80;99.90
22984;DHT22;11658;48.908;9.140;2022-07-06T13:19:28;24.20;99.90
22984;DHT22;11658;48.908;9.140;2022-07-06T13:21:54;24.20;99.90
22984;DHT22;11658;48.908;9.140;2022-07-06T13:24:19;23.70;99.90
22984;DHT22;11658;48.908;9.140;2022-07-06T13:26:45;23.50;99.90
22984;DHT22;11658;48.908;9.140;2022-07-06T13:29:14;23.30;99.90
22984;DHT22;11658;48.908;9.140;2022-07-06T13:31:40;23.20;99.90
22984;DHT22;11658;48.908;9.140;2022-07-06T13:34:07;23.50;99.90
22984;DHT22;11658;48.908;9.140;2022-07-06T13:36:35;23.50;99.90
22984;DHT22;11658;48.908;9.140;2022-07-06T13:39:01;23.50;99.90
22984;DHT22;11658;48.908;9.140;2022-07-06T13:41:27;23.50;99.90
22984;DHT22;11658;48.908;9.140;2022-07-06T13:43:55;23.40;99.90
22984;DHT22;11658;48.908;9.140;2022-07-06T13:46:21;23.20;99.90
22984;DHT22;11658;48.908;9.140;2022-07-06T13:48:46;23.20;99.90
22984;DHT22;11658;48.908;9.140;2022-07-06T13:51:12;23.30;99.90
22984;DHT22;11658;48.908;9.140;2022-07-06T13:53:38;23.40;99.90
22984;DHT22;11658;48.908;9.140;2022-07-06T13:56:04;23.50;99.90
22984;DHT22;11658;48.908;9.140;2022-07-06T13:58:30;23.50;99.90
22984;DHT22;11658;48.908;9.140;2022-07-06T14:00:56;23.40;99.90
22984;DHT22;11658;48.908;9.140;2022-07-06T14:03:22;23.30;99.90
22984;DHT22;11658;48.908;9.140;2022-07-06T14:05:53;23.20;99.90
22984;DHT22;11658;48.908;9.140;2022-07-06T14:08:20;23.10;99.90
22984;DHT22;11658;48.908;9.140;2022-07-06T14:10:45;23.10;99.90
22984;DHT22;11658;48.908;9.140;2022-07-06T14:13:11;23.20;99.90
22984;DHT22;11658;48.908;9.140;2022-07-06T14:15:37;23.10;99.90
22984;DHT22;11658;48.908;9.140;2022-07-06T14:18:02;23.00;99.90
22984;DHT22;11658;48.908;9.140;2022-07-06T14:20:28;23.00;99.90
22984;DHT22;11658;48.908;9.140;2022-07-06T14:22:54;23.00;99.90
22984;DHT22;11658;48.908;9.140;2022-07-06T14:25:19;23.10;99.90
22984;DHT22;11658;48.908;9.140;2022-07-06T14:27:45;23.20;99.90
22984;DHT22;11658;48.908;9.140;2022-07-06T14:30:11;23.00;99.90
22984;DHT22;11658;48.908;9.140;2022-07-06T14:32:37;23.00;99.90
22984;DHT22;11658;48.908;9.140;2022-07-06T14:35:02;23.10;99.90
22984;DHT22;11658;48.908;9.140;2022-07-06T14:37:28;23.50;99.90
22984;DHT22;11658;48.908;9.140;2022-07-06T14:39:54;23.60;99.90
22984;DHT22;11658;48.908;9.140;2022-07-06T14:42:19;23.30;99.90
22984;DHT22;11658;48.908;9.140;2022-07-06T14:44:45;23.00;99.90
22984;DHT22;11658;48.908;9.140;2022-07-06T14:47:11;23.00;99.90
22984;DHT22;11658;48.908;9.140;2022-07-06T14:49:36;23.30;99.90
22984;DHT22;11658;48.908;9.140;2022-07-06T14:52:03;23.30;99.90
22984;DHT22;11658;48.908;9.140;2022-07-06T14:54:29;23.50;99.90
22984;DHT22;11658;48.908;9.140;2022-07-06T14:56:54;23.60;99.90
22984;DHT22;11658;48.908;9.140;2022-07-06T14:59:20;23.50;99.90
22984;DHT22;11658;48.908;9.140;2022-07-06T15:01:45;23.50;99.90
22984;DHT22;11658;48.908;9.140;2022-07-06T15:04:11;23.60;99.90
22984;DHT22;11658;48.908;9.140;2022-07-06T15:06:37;23.40;99.90
22984;DHT22;11658;48.908;9.140;2022-07-06T15:09:03;23.40;99.90
22984;DHT22;11658;48.908;9.140;2022-07-06T15:11:32;23.30;99.90
22984;DHT22;11658;48.908;9.140;2022-07-06T15:13:58;23.50;99.90
22984;DHT22;11658;48.908;9.140;2022-07-06T15:16:24;23.40;99.90
22984;DHT22;11658;48.908;9.140;2022-07-06T15:18:50;23.40;99.90
22984;DHT22;11658;48.908;9.140;2022-07-06T15:21:16;23.60;99.90
22984;DHT22;11658;48.908;9.140;2022-07-06T15:23:41;23.60;99.90
22984;DHT22;11658;48.908;9.140;2022-07-06T15:26:07;23.60;99.90
22984;DHT22;11658;48.908;9.140;2022-07-06T15:28:33;23.30;99.90
22984;DHT22;11658;48.908;9.140;2022-07-06T15:30:59;23.30;99.90
22984;DHT22;11658;48.908;9.140;2022-07-06T15:33:25;23.20;99.90
22984;DHT22;11658;48.908;9.140;2022-07-06T15:35:51;23.20;99.90
22984;DHT22;11658;48.908;9.140;2022-07-06T15:38:18;23.20;99.90
22984;DHT22;11658;48.908;9.140;2022-07-06T15:40:44;23.10;99.90
22984;DHT22;11658;48.908;9.140;2022-07-06T15:43:24;22.70;99.90
22984;DHT22;11658;48.908;9.140;2022-07-06T15:45:58;22.70;99.90
22984;DHT22;11658;48.908;9.140;2022-07-06T15:48:25;22.80;99.90
22984;DHT22;11658;48.908;9.140;2022-07-06T15:50:51;22.90;99.90
22984;DHT22;11658;48.908;9.140;2022-07-06T15:53:17;22.70;99.90
22984;DHT22;11658;48.908;9.140;2022-07-06T15:55:43;22.80;99.90
22984;DHT22;11658;48.908;9.140;2022-07-06T15:58:09;22.70;99.90
22984;DHT22;11658;48.908;9.140;2022-07-06T16:00:35;22.80;99.90
22984;DHT22;11658;48.908;9.140;2022-07-06T16:03:00;22.90;99.90
22984;DHT22;11658;48.908;9.140;2022-07-06T16:05:27;23.10;99.90
22984;DHT22;11658;48.908;9.140;2022-07-06T16:07:53;23.30;99.90
22984;DHT22;11658;48.908;9.140;2022-07-06T16:10:19;23.40;99.90
22984;DHT22;11658;48.908;9.140;2022-07-06T16:12:45;23.30;99.90
22984;DHT22;11658;48.908;9.140;2022-07-06T16:15:11;23.40;99.90
22984;DHT22;11658;48.908;9.140;2022-07-06T16:17:37;23.30;99.70
22984;DHT22;11658;48.908;9.140;2022-07-06T16:20:03;23.40;99.50
22984;DHT22;11658;48.908;9.140;2022-07-06T16:22:29;23.30;99.50
22984;DHT22;11658;48.908;9.140;2022-07-06T16:24:56;23.30;99.50
22984;DHT22;11658;48.908;9.140;2022-07-06T16:27:22;23.20;99.60
22984;DHT22;11658;48.908;9.140;2022-07-06T16:29:47;23.40;99.00
22984;DHT22;11658;48.908;9.140;2022-07-06T16:32:13;23.50;98.70
22984;DHT22;11658;48.908;9.140;2022-07-06T16:34:41;23.30;97.70
22984;DHT22;11658;48.908;9.140;2022-07-06T16:37:07;23.50;97.60
22984;DHT22;11658;48.908;9.140;2022-07-06T16:39:33;23.90;97.90
22984;DHT22;11658;48.908;9.140;2022-07-06T16:42:01;24.00;97.90
22984;DHT22;11658;48.908;9.140;2022-07-06T16:44:26;23.70;97.60
22984;DHT22;11658;48.908;9.140;2022-07-06T16:46:52;23.60;97.70
22984;DHT22;11658;48.908;9.140;2022-07-06T16:49:18;23.90;98.30
22984;DHT22;11658;48.908;9.140;2022-07-06T16:51:43;24.20;97.80
22984;DHT22;11658;48.908;9.140;2022-07-06T16:54:09;24.40;97.90
22984;DHT22;11658;48.908;9.140;2022-07-06T16:56:35;24.40;97.30
22984;DHT22;11658;48.908;9.140;2022-07-06T16:59:01;24.40;98.10
22984;DHT22;11658;48.908;9.140;2022-07-06T17:01:27;24.60;97.30
22984;DHT22;11658;48.908;9.140;2022-07-06T17:03:52;24.70;97.50
22984;DHT22;11658;48.908;9.140;2022-07-06T17:06:21;24.80;96.30
22984;DHT22;11658;48.908;9.140;2022-07-06T17:08:46;24.50;95.70
22984;DHT22;11658;48.908;9.140;2022-07-06T17:11:12;24.20;96.30
22984;DHT22;11658;48.908;9.140;2022-07-06T17:13:38;24.20;96.50
22984;DHT22;11658;48.908;9.140;2022-07-06T17:16:04;24.10;96.60
22984;DHT22;11658;48.908;9.140;2022-07-06T17:18:30;23.50;96.00
22984;DHT22;11658;48.908;9.140;2022-07-06T17:20:56;23.10;96.20
22984;DHT22;11658;48.908;9.140;2022-07-06T17:23:21;23.20;97.00
22984;DHT22;11658;48.908;9.140;2022-07-06T17:25:48;23.20;97.30
22984;DHT22;11658;48.908;9.140;2022-07-06T17:28:14;23.20;96.40
22984;DHT22;11658;48.908;9.140;2022-07-06T17:30:40;23.40;97.30
22984;DHT22;11658;48.908;9.140;2022-07-06T17:33:07;23.50;96.80
22984;DHT22;11658;48.908;9.140;2022-07-06T17:35:33;23.90;96.50
22984;DHT22;11658;48.908;9.140;2022-07-06T17:37:59;24.20;95.60
22984;DHT22;11658;48.908;9.140;2022-07-06T17:40:26;24.50;95.10
22984;DHT22;11658;48.908;9.140;2022-07-06T17:42:52;24.60;95.30
22984;DHT22;11658;48.908;9.140;2022-07-06T17:45:17;24.50;94.00
22984;DHT22;11658;48.908;9.140;2022-07-06T17:47:43;24.30;94.50
22984;DHT22;11658;48.908;9.140;2022-07-06T17:50:09;24.20;94.80
22984;DHT22;11658;48.908;9.140;2022-07-06T17:52:35;24.20;95.50
22984;DHT22;11658;48.908;9.140;2022-07-06T17:55:01;24.10;95.40
22984;DHT22;11658;48.908;9.140;2022-07-06T17:57:26;24.00;94.70
22984;DHT22;11658;48.908;9.140;2022-07-06T17:59:52;23.80;95.00
22984;DHT22;11658;48.908;9.140;2022-07-06T18:02:18;23.80;95.10
22984;DHT22;11658;48.908;9.140;2022-07-06T18:04:47;23.70;95.00
22984;DHT22;11658;48.908;9.140;2022-07-06T18:07:14;23.60;94.70
22984;DHT22;11658;48.908;9.140;2022-07-06T18:09:39;23.00;95.00
22984;DHT22;11658;48.908;9.140;2022-07-06T18:12:05;22.70;95.90
22984;DHT22;11658;48.908;9.140;2022-07-06T18:14:31;22.60;95.90
22984;DHT22;11658;48.908;9.140;2022-07-06T18:16:57;22.60;95.60
22984;DHT22;11658;48.908;9.140;2022-07-06T18:19:22;22.70;95.90
22984;DHT22;11658;48.908;9.140;2022-07-06T18:21:48;22.70;95.90
22984;DHT22;11658;48.908;9.140;2022-07-06T18:24:14;22.70;96.00
22984;DHT22;11658;48.908;9.140;2022-07-06T18:26:41;22.60;96.20
22984;DHT22;11658;48.908;9.140;2022-07-06T18:29:06;22.10;96.20
22984;DHT22;11658;48.908;9.140;2022-07-06T18:31:34;21.90;96.70
22984;DHT22;11658;48.908;9.140;2022-07-06T18:34:00;22.10;96.80
22984;DHT22;11658;48.908;9.140;2022-07-06T18:36:26;22.10;97.20
22984;DHT22;11658;48.908;9.140;2022-07-06T18:38:54;22.10;96.80
22984;DHT22;11658;48.908;9.140;2022-07-06T18:41:20;21.90;97.00
22984;DHT22;11658;48.908;9.140;2022-07-06T18:43:45;21.90;97.60
22984;DHT22;11658;48.908;9.140;2022-07-06T18:46:11;21.70;97.50
22984;DHT22;11658;48.908;9.140;2022-07-06T18:48:36;21.50;97.60
22984;DHT22;11658;48.908;9.140;2022-07-06T18:51:02;21.20;98.10
22984;DHT22;11658;48.908;9.140;2022-07-06T18:53:27;21.10;98.50
22984;DHT22;11658;48.908;9.140;2022-07-06T18:55:53;21.00;98.70
22984;DHT22;11658;48.908;9.140;2022-07-06T18:58:19;21.00;98.40
22984;DHT22;11658;48.908;9.140;2022-07-06T19:00:44;20.90;98.70
22984;DHT22;11658;48.908;9.140;2022-07-06T19:03:10;20.80;98.40